METAR
Diposting tanggal: 16 November 2020

Pukul :

Isi :
METAR WAGI 200300Z 10004KT 9999 FEW015 30/24 Q1011 NOSIG=